Time;durP1;ratioP1;P1;durP2;ratioP2;P2;SDS_P1;SDS_P2;PMS_P1;PMS_P2;Temp;Humidity;BMP_temperature;BMP_pressure;BME280_temperature;BME280_humidity;BME280_pressure;Samples;Min_cycle;Max_cycle;Signal;HPM_P1;HPM_P2
2023/04/20 00:02:05;;;;;;;14.68;4.38;;;;;;;;;;5133546;27;20463;-74
2023/04/20 00:04:31;;;;;;;16.17;5.13;;;;;;;;;;5133143;27;20031;-74
2023/04/20 00:06:58;;;;;;;18.38;5.10;;;;;;;;;;5132980;27;20660;-72
2023/04/20 00:09:24;;;;;;;17.48;4.53;;;;;;;;;;5133003;27;20106;-73
2023/04/20 00:11:50;;;;;;;15.63;4.43;;;;;;;;;;5132942;27;20019;-74
2023/04/20 00:14:16;;;;;;;15.18;4.60;;;;;;;;;;5133001;27;20062;-77
2023/04/20 00:16:42;;;;;;;20.95;4.65;;;;;;;;;;5132878;27;20348;-75
2023/04/20 00:19:08;;;;;;;18.30;4.97;;;;;;;;;;5132588;27;20459;-77
2023/04/20 00:21:35;;;;;;;14.00;4.85;;;;;;;;;;5132684;27;20019;-75
2023/04/20 00:24:01;;;;;;;17.17;5.30;;;;;;;;;;5131279;27;20419;-75
2023/04/20 00:26:27;;;;;;;15.45;4.88;;;;;;;;;;5132645;27;20491;-76
2023/04/20 00:28:53;;;;;;;17.05;4.80;;;;;;;;;;5132379;27;20037;-74
2023/04/20 00:31:20;;;;;;;16.33;4.78;;;;;;;;;;5132528;27;20038;-75
2023/04/20 00:33:47;;;;;;;18.02;4.60;;;;;;;;;;5132515;27;20023;-75
2023/04/20 00:36:13;;;;;;;12.00;4.78;;;;;;;;;;5132374;27;20090;-76
2023/04/20 00:38:39;;;;;;;17.45;4.95;;;;;;;;;;5131181;27;20501;-75
2023/04/20 00:41:06;;;;;;;18.60;4.63;;;;;;;;;;5131979;27;20387;-75
2023/04/20 00:43:32;;;;;;;16.13;5.03;;;;;;;;;;5132410;27;20027;-75
2023/04/20 00:45:58;;;;;;;15.60;4.82;;;;;;;;;;5132225;27;20639;-74
2023/04/20 00:48:24;;;;;;;15.98;4.25;;;;;;;;;;5132368;27;20038;-75
2023/04/20 00:50:50;;;;;;;24.08;5.43;;;;;;;;;;5132106;27;20057;-75
2023/04/20 00:53:16;;;;;;;15.35;4.55;;;;;;;;;;5132343;27;20019;-74
2023/04/20 00:55:43;;;;;;;16.58;5.05;;;;;;;;;;5132154;27;20023;-73
2023/04/20 00:58:10;;;;;;;16.55;5.03;;;;;;;;;;5132005;27;20027;-75
2023/04/20 01:00:36;;;;;;;23.95;5.60;;;;;;;;;;5132278;27;20482;-74
2023/04/20 01:03:02;;;;;;;14.57;4.95;;;;;;;;;;5131958;27;20039;-74
2023/04/20 01:05:28;;;;;;;13.05;3.95;;;;;;;;;;5132271;28;20027;-75
2023/04/20 01:07:54;;;;;;;12.88;4.72;;;;;;;;;;5132281;28;20020;-74
2023/04/20 01:10:20;;;;;;;18.10;5.30;;;;;;;;;;5131963;28;20080;-73
2023/04/20 01:12:46;;;;;;;15.15;4.53;;;;;;;;;;5131937;28;20020;-75
2023/04/20 01:15:12;;;;;;;24.85;5.07;;;;;;;;;;5132378;28;20019;-74
2023/04/20 01:17:38;;;;;;;12.45;4.65;;;;;;;;;;5131970;28;20677;-75
2023/04/20 01:20:07;;;;;;;12.38;4.47;;;;;;;;;;5131893;28;20035;-75
2023/04/20 01:22:34;;;;;;;15.93;4.70;;;;;;;;;;5131912;28;20027;-74
2023/04/20 01:25:00;;;;;;;11.68;4.22;;;;;;;;;;5131961;28;20065;-75
2023/04/20 01:27:26;;;;;;;23.00;5.40;;;;;;;;;;5131933;28;20105;-75
2023/04/20 01:29:52;;;;;;;16.17;4.95;;;;;;;;;;5131952;28;20051;-74
2023/04/20 01:32:18;;;;;;;14.07;5.63;;;;;;;;;;5132087;28;20050;-75
2023/04/20 01:34:44;;;;;;;18.60;5.03;;;;;;;;;;5131930;28;20106;-76
2023/04/20 01:37:10;;;;;;;18.67;5.05;;;;;;;;;;5131841;28;20020;-75
2023/04/20 01:39:37;;;;;;;13.93;4.32;;;;;;;;;;5131740;28;20432;-75
2023/04/20 01:42:03;;;;;;;13.95;4.28;;;;;;;;;;5131845;28;20011;-74
2023/04/20 01:44:29;;;;;;;15.38;4.97;;;;;;;;;;5131856;28;20072;-74
2023/04/20 01:46:55;;;;;;;18.20;4.82;;;;;;;;;;5131381;28;20039;-75
2023/04/20 01:49:21;;;;;;;16.40;5.72;;;;;;;;;;5131554;28;20034;-73
2023/04/20 01:51:47;;;;;;;20.50;5.10;;;;;;;;;;5131542;28;20072;-75
2023/04/20 01:54:13;;;;;;;18.50;4.88;;;;;;;;;;5135006;27;20498;-75
2023/04/20 01:56:39;;;;;;;10.85;4.65;;;;;;;;;;5135469;27;20027;-74
2023/04/20 01:59:05;;;;;;;14.55;5.95;;;;;;;;;;5135186;27;20022;-74
2023/04/20 02:01:31;;;;;;;13.50;4.35;;;;;;;;;;5135288;27;20023;-74
2023/04/20 02:03:57;;;;;;;14.32;4.72;;;;;;;;;;5135233;27;20135;-75
2023/04/20 02:06:23;;;;;;;11.45;5.38;;;;;;;;;;5135497;27;20500;-73
2023/04/20 02:08:49;;;;;;;15.68;4.85;;;;;;;;;;5135353;27;20102;-71
2023/04/20 02:11:15;;;;;;;20.08;6.40;;;;;;;;;;5135128;27;20086;-74
2023/04/20 02:13:41;;;;;;;16.30;5.90;;;;;;;;;;5135269;27;20027;-75
2023/04/20 02:16:08;;;;;;;15.23;5.07;;;;;;;;;;5134918;27;20023;-73
2023/04/20 02:18:34;;;;;;;18.60;5.68;;;;;;;;;;5135190;27;20023;-75
2023/04/20 02:21:01;;;;;;;18.98;5.80;;;;;;;;;;5135069;27;20012;-75
2023/04/20 02:23:27;;;;;;;15.32;4.97;;;;;;;;;;5134804;27;20027;-73
2023/04/20 02:25:53;;;;;;;18.15;5.25;;;;;;;;;;5134818;27;20024;-75
2023/04/20 02:28:19;;;;;;;23.42;6.50;;;;;;;;;;5134779;27;20147;-74
2023/04/20 02:30:45;;;;;;;21.02;6.82;;;;;;;;;;5134823;27;20027;-75
2023/04/20 02:33:11;;;;;;;20.35;5.53;;;;;;;;;;5133469;27;20506;-74
2023/04/20 02:35:37;;;;;;;19.70;5.68;;;;;;;;;;5134888;27;20045;-73
2023/04/20 02:38:03;;;;;;;17.85;5.47;;;;;;;;;;5134653;27;20027;-74
2023/04/20 02:40:29;;;;;;;19.75;5.95;;;;;;;;;;5134660;27;20027;-76
2023/04/20 02:42:55;;;;;;;17.23;5.43;;;;;;;;;;5133147;27;20539;-73
2023/04/20 02:45:21;;;;;;;20.05;6.20;;;;;;;;;;5134456;27;20336;-74
2023/04/20 02:47:47;;;;;;;16.20;5.78;;;;;;;;;;5134309;27;20074;-73
2023/04/20 02:50:14;;;;;;;19.92;5.53;;;;;;;;;;5133158;27;20384;-74
2023/04/20 02:52:40;;;;;;;21.25;6.47;;;;;;;;;;5134502;27;20029;-74
2023/04/20 02:55:06;;;;;;;19.17;6.00;;;;;;;;;;5134258;27;20478;-73
2023/04/20 02:57:32;;;;;;;16.17;6.20;;;;;;;;;;5134148;27;20110;-72
2023/04/20 02:59:59;;;;;;;22.92;5.95;;;;;;;;;;5134139;27;20035;-74
2023/04/20 03:02:24;;;;;;;22.70;7.22;;;;;;;;;;5134282;27;20027;-73
2023/04/20 03:04:51;;;;;;;22.38;6.57;;;;;;;;;;5133464;27;20032;-71
2023/04/20 03:07:17;;;;;;;18.58;5.97;;;;;;;;;;5134042;27;20072;-71
2023/04/20 03:09:43;;;;;;;16.65;6.25;;;;;;;;;;5133874;27;20153;-72
2023/04/20 03:12:09;;;;;;;19.55;6.43;;;;;;;;;;5133990;27;20043;-73
2023/04/20 03:14:35;;;;;;;17.25;6.35;;;;;;;;;;5132705;27;20019;-74
2023/04/20 03:17:01;;;;;;;18.98;6.60;;;;;;;;;;5133809;27;20076;-74
2023/04/20 03:19:27;;;;;;;17.75;7.10;;;;;;;;;;5133784;27;20023;-73
2023/04/20 03:21:53;;;;;;;15.77;6.82;;;;;;;;;;5133635;27;20459;-73
2023/04/20 03:24:19;;;;;;;14.20;6.30;;;;;;;;;;5133682;27;20122;-72
2023/04/20 03:26:45;;;;;;;25.92;7.40;;;;;;;;;;5115258;27;20359;-73
2023/04/20 03:29:11;;;;;;;26.63;7.47;;;;;;;;;;5133316;27;20041;-73
2023/04/20 03:31:37;;;;;;;19.52;6.93;;;;;;;;;;5133625;27;20475;-74
2023/04/20 03:34:03;;;;;;;18.00;7.15;;;;;;;;;;5133738;27;20076;-76
2023/04/20 03:36:30;;;;;;;20.80;6.80;;;;;;;;;;5133529;27;20101;-76
2023/04/20 03:38:56;;;;;;;18.33;6.82;;;;;;;;;;5133559;27;20487;-76
2023/04/20 03:41:22;;;;;;;18.10;7.68;;;;;;;;;;5133489;27;20015;-75
2023/04/20 03:43:48;;;;;;;27.10;7.60;;;;;;;;;;5133251;27;20428;-75
2023/04/20 03:46:14;;;;;;;21.42;6.63;;;;;;;;;;5133107;27;20027;-75
2023/04/20 03:48:40;;;;;;;17.85;6.30;;;;;;;;;;5133255;27;20031;-73
2023/04/20 03:51:06;;;;;;;23.45;7.22;;;;;;;;;;5133201;27;20071;-72
2023/04/20 03:53:33;;;;;;;24.63;7.95;;;;;;;;;;5133242;27;20027;-74
2023/04/20 03:55:59;;;;;;;17.30;6.65;;;;;;;;;;5132959;27;20023;-74
2023/04/20 03:58:25;;;;;;;19.73;6.60;;;;;;;;;;5133149;27;20111;-75
2023/04/20 04:00:51;;;;;;;19.20;6.47;;;;;;;;;;5133114;27;20027;-74
2023/04/20 04:03:17;;;;;;;23.73;8.23;;;;;;;;;;5132870;27;20048;-74
2023/04/20 04:05:43;;;;;;;19.77;6.18;;;;;;;;;;5132931;27;20051;-74
2023/04/20 04:08:09;;;;;;;17.10;7.22;;;;;;;;;;5133036;27;20113;-75
2023/04/20 04:10:35;;;;;;;18.38;6.63;;;;;;;;;;5131511;27;20019;-74
2023/04/20 04:13:02;;;;;;;17.45;6.63;;;;;;;;;;5132978;27;20522;-75
2023/04/20 04:15:28;;;;;;;17.05;6.72;;;;;;;;;;5131103;27;20122;-75
2023/04/20 04:17:54;;;;;;;21.92;7.20;;;;;;;;;;5130848;27;20031;-76
2023/04/20 04:20:20;;;;;;;21.77;7.20;;;;;;;;;;5133065;27;20051;-75
2023/04/20 04:22:46;;;;;;;16.08;6.25;;;;;;;;;;5132852;27;20031;-74
2023/04/20 04:25:12;;;;;;;22.67;6.93;;;;;;;;;;5132637;27;20035;-76
2023/04/20 04:27:38;;;;;;;20.58;7.22;;;;;;;;;;5131074;27;20016;-74
2023/04/20 04:30:05;;;;;;;18.40;6.82;;;;;;;;;;5132546;27;20048;-75
2023/04/20 04:32:33;;;;;;;15.23;6.18;;;;;;;;;;5132377;27;20026;-75
2023/04/20 04:35:00;;;;;;;16.92;6.03;;;;;;;;;;5132469;27;20020;-73
2023/04/20 04:37:26;;;;;;;18.48;7.00;;;;;;;;;;5132437;27;20053;-73
2023/04/20 04:39:53;;;;;;;16.70;6.88;;;;;;;;;;5132022;27;20016;-71
2023/04/20 04:42:20;;;;;;;20.48;6.10;;;;;;;;;;5132295;27;20068;-71
2023/04/20 04:44:46;;;;;;;19.52;6.22;;;;;;;;;;5132316;27;20596;-71
2023/04/20 04:47:13;;;;;;;15.07;6.40;;;;;;;;;;5132090;27;20042;-73
2023/04/20 04:49:39;;;;;;;16.80;6.00;;;;;;;;;;5132273;27;20026;-73
2023/04/20 04:52:05;;;;;;;24.77;6.47;;;;;;;;;;5122578;27;20537;-74
2023/04/20 04:54:31;;;;;;;15.40;5.85;;;;;;;;;;5111701;28;20101;-73
2023/04/20 04:56:57;;;;;;;15.32;6.05;;;;;;;;;;5111506;28;20476;-76
2023/04/20 04:59:23;;;;;;;14.05;5.38;;;;;;;;;;5111446;28;20065;-76
2023/04/20 05:01:49;;;;;;;18.27;6.55;;;;;;;;;;5111378;28;20525;-75
2023/04/20 05:04:15;;;;;;;18.98;6.35;;;;;;;;;;5111359;28;20043;-71
2023/04/20 05:06:41;;;;;;;14.30;6.00;;;;;;;;;;5111545;28;20456;-72
2023/04/20 05:09:08;;;;;;;19.25;5.55;;;;;;;;;;5111510;28;20482;-73
2023/04/20 05:11:34;;;;;;;18.20;6.07;;;;;;;;;;5109826;28;20111;-71
2023/04/20 05:14:01;;;;;;;15.82;6.45;;;;;;;;;;5110253;28;20046;-73
2023/04/20 05:16:27;;;;;;;14.60;5.97;;;;;;;;;;5111432;28;20055;-74
2023/04/20 05:18:53;;;;;;;15.60;6.60;;;;;;;;;;5111597;28;20020;-74
2023/04/20 05:21:20;;;;;;;11.45;6.35;;;;;;;;;;5111406;28;20103;-74
2023/04/20 05:23:46;;;;;;;14.65;6.00;;;;;;;;;;5106634;28;20039;-74
2023/04/20 05:26:12;;;;;;;14.52;5.72;;;;;;;;;;5099858;28;20019;-73
2023/04/20 05:28:38;;;;;;;19.33;6.28;;;;;;;;;;5099281;28;20062;-73
2023/04/20 05:31:06;;;;;;;20.85;6.10;;;;;;;;;;5112080;28;20046;-75
2023/04/20 05:33:33;;;;;;;17.92;5.93;;;;;;;;;;5111748;28;20043;-76
2023/04/20 05:35:59;;;;;;;16.88;6.15;;;;;;;;;;5095102;28;20163;-76
2023/04/20 05:38:25;;;;;;;11.70;5.85;;;;;;;;;;5095039;28;20024;-77
2023/04/20 05:40:52;;;;;;;18.67;6.55;;;;;;;;;;5095045;28;20472;-77
2023/04/20 05:43:18;;;;;;;18.27;6.47;;;;;;;;;;5094905;28;20028;-77
2023/04/20 05:45:45;;;;;;;13.93;6.22;;;;;;;;;;5098283;28;20018;-76
2023/04/20 05:48:11;;;;;;;18.92;6.30;;;;;;;;;;5115235;28;20043;-76
2023/04/20 05:50:37;;;;;;;18.52;6.40;;;;;;;;;;5115232;28;20515;-76
2023/04/20 05:53:04;;;;;;;17.10;6.15;;;;;;;;;;5113933;28;20027;-67
2023/04/20 05:55:30;;;;;;;18.83;6.07;;;;;;;;;;5115264;28;20030;-70
2023/04/20 05:57:56;;;;;;;18.30;6.93;;;;;;;;;;5094666;28;20024;-68
2023/04/20 06:00:23;;;;;;;14.95;6.68;;;;;;;;;;5111189;28;20030;-68
2023/04/20 06:02:49;;;;;;;22.90;7.03;;;;;;;;;;5114666;28;20026;-67
2023/04/20 06:05:16;;;;;;;19.83;6.25;;;;;;;;;;5114972;28;20085;-68
2023/04/20 06:07:42;;;;;;;15.00;6.55;;;;;;;;;;5113617;28;20065;-66
2023/04/20 06:10:09;;;;;;;14.05;6.80;;;;;;;;;;5114779;28;20032;-67
2023/04/20 06:12:35;;;;;;;18.33;6.60;;;;;;;;;;5114553;28;20027;-69
2023/04/20 06:15:01;;;;;;;14.98;5.93;;;;;;;;;;5094679;28;20027;-68
2023/04/20 06:17:27;;;;;;;13.18;6.07;;;;;;;;;;5094215;28;20136;-66
2023/04/20 06:19:54;;;;;;;14.60;5.72;;;;;;;;;;5094284;28;20024;-69
2023/04/20 06:22:20;;;;;;;12.02;5.18;;;;;;;;;;5098562;28;20421;-67
2023/04/20 06:24:46;;;;;;;13.55;5.50;;;;;;;;;;5114659;28;20123;-67
2023/04/20 06:27:12;;;;;;;13.80;6.03;;;;;;;;;;5111704;28;20476;-68
2023/04/20 06:29:38;;;;;;;12.43;5.72;;;;;;;;;;5094354;28;20028;-68
2023/04/20 06:32:05;;;;;;;15.32;5.35;;;;;;;;;;5105453;28;20016;-65
2023/04/20 06:34:31;;;;;;;10.90;4.70;;;;;;;;;;5094101;28;20031;-68
2023/04/20 06:36:57;;;;;;;12.63;4.95;;;;;;;;;;5106686;28;20016;-70
2023/04/20 06:39:23;;;;;;;11.88;5.20;;;;;;;;;;5113159;28;20042;-68
2023/04/20 06:41:49;;;;;;;13.55;5.20;;;;;;;;;;5114080;28;20030;-68
2023/04/20 06:44:15;;;;;;;18.02;4.80;;;;;;;;;;5110296;28;20036;-68
2023/04/20 06:46:41;;;;;;;12.05;4.43;;;;;;;;;;5114028;28;20067;-67
2023/04/20 06:49:07;;;;;;;14.10;4.68;;;;;;;;;;5113894;28;20037;-68
2023/04/20 06:51:34;;;;;;;9.00;4.30;;;;;;;;;;5113955;28;20114;-68
2023/04/20 06:54:00;;;;;;;10.77;4.30;;;;;;;;;;5113902;28;20027;-68
2023/04/20 06:56:26;;;;;;;9.27;5.13;;;;;;;;;;5113919;28;20053;-68
2023/04/20 06:58:52;;;;;;;9.20;4.13;;;;;;;;;;5105490;28;20032;-68
2023/04/20 07:01:18;;;;;;;12.20;5.15;;;;;;;;;;5113256;28;20037;-69
2023/04/20 07:03:45;;;;;;;12.98;4.43;;;;;;;;;;5114082;28;20073;-69
2023/04/20 07:06:11;;;;;;;11.23;3.95;;;;;;;;;;5108318;28;20012;-69
2023/04/20 07:08:38;;;;;;;13.55;4.18;;;;;;;;;;5093196;28;20032;-68
2023/04/20 07:11:04;;;;;;;7.05;3.85;;;;;;;;;;5107356;28;20023;-68
2023/04/20 07:13:30;;;;;;;7.30;4.20;;;;;;;;;;5112435;28;20144;-67
2023/04/20 07:15:57;;;;;;;9.32;4.10;;;;;;;;;;5113483;28;20068;-69
2023/04/20 07:18:23;;;;;;;12.27;5.53;;;;;;;;;;5113510;28;20083;-69
2023/04/20 07:20:49;;;;;;;9.60;3.88;;;;;;;;;;5103093;28;20031;-69
2023/04/20 07:23:15;;;;;;;9.73;4.35;;;;;;;;;;5092970;28;20384;-68
2023/04/20 07:25:41;;;;;;;12.45;3.30;;;;;;;;;;5092924;28;20494;-69
2023/04/20 07:28:07;;;;;;;6.93;3.70;;;;;;;;;;5093425;28;20028;-69
2023/04/20 07:30:33;;;;;;;7.78;4.03;;;;;;;;;;5092969;28;20016;-68
2023/04/20 07:32:59;;;;;;;8.23;3.70;;;;;;;;;;5092554;28;20488;-70
2023/04/20 07:35:25;;;;;;;12.48;3.50;;;;;;;;;;5092881;28;20024;-69
2023/04/20 07:37:51;;;;;;;16.45;3.63;;;;;;;;;;5092647;28;20020;-70
2023/04/20 07:40:17;;;;;;;8.30;3.13;;;;;;;;;;5093217;28;20073;-70
2023/04/20 07:42:43;;;;;;;7.97;3.20;;;;;;;;;;5091271;28;20097;-69
2023/04/20 07:45:10;;;;;;;8.18;3.28;;;;;;;;;;5092753;28;20065;-68
2023/04/20 07:47:36;;;;;;;7.90;3.38;;;;;;;;;;5092414;28;20468;-69
2023/04/20 07:50:03;;;;;;;11.57;3.30;;;;;;;;;;5092527;28;20020;-69
2023/04/20 07:52:29;;;;;;;6.18;2.60;;;;;;;;;;5092298;28;20074;-68
2023/04/20 07:54:58;;;;;;;6.43;3.22;;;;;;;;;;5092287;28;20052;-66
2023/04/20 07:57:24;;;;;;;6.00;2.97;;;;;;;;;;5092429;28;20116;-67
2023/04/20 07:59:50;;;;;;;8.05;3.55;;;;;;;;;;5092149;28;20476;-66
2023/04/20 08:02:16;;;;;;;7.40;3.10;;;;;;;;;;5090955;28;20028;-67
2023/04/20 08:04:43;;;;;;;6.78;3.00;;;;;;;;;;5091967;28;20085;-66
2023/04/20 08:07:09;;;;;;;10.35;3.00;;;;;;;;;;5092069;28;20050;-66
2023/04/20 08:09:36;;;;;;;10.43;2.85;;;;;;;;;;5092101;28;20034;-67
2023/04/20 08:12:02;;;;;;;9.05;3.13;;;;;;;;;;5092007;28;20012;-67
2023/04/20 08:14:28;;;;;;;6.63;2.50;;;;;;;;;;5092039;28;20105;-68
2023/04/20 08:16:54;;;;;;;5.30;2.80;;;;;;;;;;5092054;28;20439;-67
2023/04/20 08:19:20;;;;;;;5.38;2.78;;;;;;;;;;5091994;28;20532;-67
2023/04/20 08:21:46;;;;;;;7.35;2.67;;;;;;;;;;5091975;28;20020;-68
2023/04/20 08:24:12;;;;;;;6.30;2.88;;;;;;;;;;5091661;28;20032;-67
2023/04/20 08:26:38;;;;;;;7.45;2.85;;;;;;;;;;5092044;28;20099;-68
2023/04/20 08:29:05;;;;;;;6.25;2.83;;;;;;;;;;5091775;28;20036;-68
2023/04/20 08:31:32;;;;;;;6.63;2.47;;;;;;;;;;5091818;28;20020;-68
2023/04/20 08:33:58;;;;;;;7.30;2.83;;;;;;;;;;5091582;28;20641;-68
2023/04/20 08:36:25;;;;;;;7.97;2.85;;;;;;;;;;5091078;28;20024;-68
2023/04/20 08:38:53;;;;;;;8.05;2.88;;;;;;;;;;5090948;28;20035;-70
2023/04/20 08:41:19;;;;;;;4.85;2.33;;;;;;;;;;5091294;28;20066;-67
2023/04/20 08:43:47;;;;;;;5.75;2.10;;;;;;;;;;5097199;28;20071;-69
2023/04/20 08:46:14;;;;;;;3.63;1.90;;;;;;;;;;5111884;28;20167;-68
2023/04/20 08:48:41;;;;;;;6.38;2.20;;;;;;;;;;5109916;28;20088;-69
2023/04/20 08:51:07;;;;;;;4.70;2.30;;;;;;;;;;5106848;28;20431;-68
2023/04/20 08:53:33;;;;;;;5.28;2.20;;;;;;;;;;5095178;28;20509;-68
2023/04/20 08:56:00;;;;;;;4.47;2.53;;;;;;;;;;5108785;28;20024;-69
2023/04/20 08:58:29;;;;;;;5.28;2.50;;;;;;;;;;5106153;28;20042;-73
2023/04/20 09:00:56;;;;;;;7.95;2.72;;;;;;;;;;5096995;28;20024;-69
2023/04/20 09:03:35;;;;;;;6.47;2.88;;;;;;;;;;5092194;28;20060;-71
2023/04/20 09:06:02;;;;;;;4.60;2.33;;;;;;;;;;5111707;28;20118;-69
2023/04/20 09:08:54;;;;;;;4.85;2.40;;;;;;;;;;5110055;28;20020;-69
2023/04/20 09:11:21;;;;;;;4.57;2.30;;;;;;;;;;5108041;28;20118;-69
2023/04/20 09:13:58;;;;;;;5.07;2.05;;;;;;;;;;5094830;28;20065;-69
2023/04/20 09:16:24;;;;;;;5.22;2.22;;;;;;;;;;5098724;28;20036;-69
2023/04/20 09:18:57;;;;;;;5.35;2.58;;;;;;;;;;5094702;28;20054;-69
2023/04/20 09:21:24;;;;;;;4.63;2.22;;;;;;;;;;5109027;28;20065;-70
2023/04/20 09:23:57;;;;;;;5.50;2.45;;;;;;;;;;5110801;28;20036;-69
2023/04/20 09:26:23;;;;;;;5.57;2.30;;;;;;;;;;5098775;28;20012;-69
2023/04/20 09:28:49;;;;;;;5.13;2.10;;;;;;;;;;5110886;28;20034;-67
2023/04/20 09:31:18;;;;;;;4.85;1.88;;;;;;;;;;5106015;28;20024;-69
2023/04/20 09:33:45;;;;;;;8.35;2.03;;;;;;;;;;5091382;28;20058;-71
2023/04/20 09:36:11;;;;;;;5.28;1.50;;;;;;;;;;5099579;28;20055;-70
2023/04/20 09:38:37;;;;;;;6.10;1.92;;;;;;;;;;5094221;28;20055;-69
2023/04/20 09:41:03;;;;;;;3.53;1.70;;;;;;;;;;5095173;28;20034;-73
2023/04/20 09:43:30;;;;;;;2.45;1.60;;;;;;;;;;5111196;28;20082;-71
2023/04/20 09:45:56;;;;;;;3.60;1.60;;;;;;;;;;5103853;28;20016;-71
2023/04/20 09:48:22;;;;;;;6.45;1.90;;;;;;;;;;5090486;28;20036;-71
2023/04/20 09:50:48;;;;;;;9.00;2.33;;;;;;;;;;5091265;28;20048;-68
2023/04/20 09:53:17;;;;;;;3.72;1.77;;;;;;;;;;5104423;28;20027;-70
2023/04/20 09:55:47;;;;;;;3.65;1.60;;;;;;;;;;5091984;28;20059;-68
2023/04/20 09:58:13;;;;;;;6.28;2.45;;;;;;;;;;5105300;28;20494;-70
2023/04/20 10:00:42;;;;;;;6.63;1.75;;;;;;;;;;5103369;28;20077;-67
2023/04/20 10:03:09;;;;;;;5.47;1.77;;;;;;;;;;5111300;28;20087;-70
2023/04/20 10:05:38;;;;;;;4.75;1.83;;;;;;;;;;5091063;28;20032;-67
2023/04/20 10:08:04;;;;;;;6.75;2.10;;;;;;;;;;5090909;28;20177;-71
2023/04/20 10:10:30;;;;;;;7.55;1.88;;;;;;;;;;5090535;28;20024;-70
2023/04/20 10:12:59;;;;;;;5.53;2.25;;;;;;;;;;5093930;28;20024;-68
2023/04/20 10:15:36;;;;;;;3.08;1.30;;;;;;;;;;5108396;28;20019;-68
2023/04/20 10:18:03;;;;;;;3.17;1.13;;;;;;;;;;5099585;27;20481;-69
2023/04/20 10:20:29;;;;;;;5.53;1.70;;;;;;;;;;5095002;28;20028;-67
2023/04/20 10:23:06;;;;;;;2.20;1.55;;;;;;;;;;5094212;28;20074;-72
2023/04/20 10:25:32;;;;;;;2.75;1.50;;;;;;;;;;5109310;28;20038;-71
2023/04/20 10:28:03;;;;;;;3.65;1.60;;;;;;;;;;5113472;28;20093;-71
2023/04/20 10:30:29;;;;;;;3.38;1.35;;;;;;;;;;5114478;28;20483;-70
2023/04/20 10:33:22;;;;;;;5.13;1.38;;;;;;;;;;5112445;28;20055;-71
2023/04/20 10:35:48;;;;;;;5.75;1.33;;;;;;;;;;5095921;27;20105;-73
2023/04/20 10:38:15;;;;;;;3.90;1.20;;;;;;;;;;5097337;28;20047;-73
2023/04/20 10:40:41;;;;;;;3.13;1.20;;;;;;;;;;5093577;28;20563;-73
2023/04/20 10:43:20;;;;;;;3.15;1.40;;;;;;;;;;5100598;28;20027;-71
2023/04/20 10:45:46;;;;;;;1.70;1.25;;;;;;;;;;5103952;28;20111;-72
2023/04/20 10:48:12;;;;;;;2.05;1.10;;;;;;;;;;5093666;28;20024;-73
2023/04/20 10:50:39;;;;;;;6.63;1.45;;;;;;;;;;5113501;28;20075;-72
2023/04/20 10:53:06;;;;;;;3.47;1.77;;;;;;;;;;5113942;27;20039;-70
2023/04/20 10:55:33;;;;;;;2.78;1.40;;;;;;;;;;5097904;28;20039;-73
2023/04/20 10:57:59;;;;;;;3.50;1.05;;;;;;;;;;5105607;28;20047;-70
2023/04/20 11:00:26;;;;;;;2.15;1.13;;;;;;;;;;5093273;28;20028;-71
2023/04/20 11:02:56;;;;;;;6.30;1.40;;;;;;;;;;5093637;28;20292;-69
2023/04/20 11:05:22;;;;;;;3.67;1.27;;;;;;;;;;5093430;28;20027;-72
2023/04/20 11:07:52;;;;;;;2.78;1.30;;;;;;;;;;5106284;28;20015;-71
2023/04/20 11:10:18;;;;;;;6.15;1.20;;;;;;;;;;5095324;28;20061;-73
2023/04/20 11:12:45;;;;;;;3.83;1.88;;;;;;;;;;5105439;28;20024;-72
2023/04/20 11:15:12;;;;;;;2.72;1.48;;;;;;;;;;5100921;28;20372;-75
2023/04/20 11:17:38;;;;;;;2.50;1.02;;;;;;;;;;5113521;28;20045;-72
2023/04/20 11:20:07;;;;;;;4.30;1.40;;;;;;;;;;5095436;28;20089;-72
2023/04/20 11:22:33;;;;;;;7.80;1.27;;;;;;;;;;5096582;28;20024;-69
2023/04/20 11:25:06;;;;;;;3.80;1.40;;;;;;;;;;5099272;28;20032;-70
2023/04/20 11:27:36;;;;;;;3.15;1.65;;;;;;;;;;5095532;28;20436;-69
2023/04/20 11:30:06;;;;;;;5.05;1.67;;;;;;;;;;5109798;28;20032;-70
2023/04/20 11:32:33;;;;;;;3.15;1.92;;;;;;;;;;5105115;28;20020;-69
2023/04/20 11:35:00;;;;;;;4.47;1.60;;;;;;;;;;5102766;28;20028;-71
2023/04/20 11:37:27;;;;;;;4.30;1.73;;;;;;;;;;5099695;28;20100;-70
2023/04/20 11:40:00;;;;;;;6.95;1.52;;;;;;;;;;5092154;28;20055;-71
2023/04/20 11:42:27;;;;;;;4.28;1.83;;;;;;;;;;5104043;28;20051;-70
2023/04/20 11:44:53;;;;;;;6.57;1.30;;;;;;;;;;5108879;28;20039;-69
2023/04/20 11:47:19;;;;;;;2.35;1.40;;;;;;;;;;5105211;28;20119;-72
2023/04/20 11:49:45;;;;;;;3.30;1.15;;;;;;;;;;5098935;28;20074;-72
2023/04/20 11:52:11;;;;;;;4.25;1.20;;;;;;;;;;5095844;28;20044;-71
2023/04/20 11:54:37;;;;;;;3.15;0.98;;;;;;;;;;5093969;28;20044;-73
2023/04/20 11:57:03;;;;;;;2.38;1.20;;;;;;;;;;5100793;28;20480;-71
2023/04/20 11:59:29;;;;;;;7.55;1.40;;;;;;;;;;5095663;28;20056;-72
2023/04/20 12:01:55;;;;;;;1.55;1.00;;;;;;;;;;5104787;28;20286;-72
2023/04/20 12:04:21;;;;;;;4.47;1.40;;;;;;;;;;5097365;28;20039;-72
2023/04/20 12:06:47;;;;;;;2.33;1.25;;;;;;;;;;5112549;28;20027;-72
2023/04/20 12:09:14;;;;;;;1.92;1.10;;;;;;;;;;5105040;28;20031;-70
2023/04/20 12:11:40;;;;;;;2.00;1.30;;;;;;;;;;5092194;28;20153;-70
2023/04/20 12:14:06;;;;;;;4.45;1.35;;;;;;;;;;5092111;28;20020;-72
2023/04/20 12:16:32;;;;;;;4.22;1.42;;;;;;;;;;5091952;28;20484;-72
2023/04/20 12:18:59;;;;;;;4.43;1.65;;;;;;;;;;5091708;28;20032;-72
2023/04/20 12:21:26;;;;;;;2.03;1.23;;;;;;;;;;5095285;28;20114;-73
2023/04/20 12:23:52;;;;;;;2.58;1.42;;;;;;;;;;5093260;28;20742;-71
2023/04/20 12:26:18;;;;;;;3.13;1.45;;;;;;;;;;5103242;28;20028;-72
2023/04/20 12:28:44;;;;;;;2.10;1.30;;;;;;;;;;5111098;28;20059;-72
2023/04/20 12:31:10;;;;;;;3.42;1.58;;;;;;;;;;5112004;28;20034;-72
2023/04/20 12:33:36;;;;;;;3.08;1.58;;;;;;;;;;5097647;28;20034;-72
2023/04/20 12:36:02;;;;;;;6.80;1.35;;;;;;;;;;5091600;28;20098;-72
2023/04/20 12:38:28;;;;;;;7.50;1.90;;;;;;;;;;5103571;28;20034;-70
2023/04/20 12:40:54;;;;;;;4.13;1.73;;;;;;;;;;5107665;28;20081;-70
2023/04/20 12:43:20;;;;;;;2.50;1.25;;;;;;;;;;5091398;28;20119;-71
2023/04/20 12:45:47;;;;;;;2.95;1.60;;;;;;;;;;5101492;28;20103;-71
2023/04/20 12:48:13;;;;;;;5.85;1.25;;;;;;;;;;5097882;28;20115;-72
2023/04/20 12:50:39;;;;;;;5.07;1.48;;;;;;;;;;5091025;28;20040;-72
2023/04/20 12:53:05;;;;;;;3.17;1.35;;;;;;;;;;5094217;28;20131;-74
2023/04/20 12:55:31;;;;;;;5.25;1.52;;;;;;;;;;5109491;28;20471;-73
2023/04/20 12:57:57;;;;;;;5.50;1.50;;;;;;;;;;5109467;28;20039;-73
2023/04/20 13:00:23;;;;;;;5.10;1.63;;;;;;;;;;5111781;28;20031;-72
2023/04/20 13:02:49;;;;;;;3.58;1.35;;;;;;;;;;5095864;28;20534;-71
2023/04/20 13:05:16;;;;;;;5.28;1.90;;;;;;;;;;5089528;28;20024;-73
2023/04/20 13:07:42;;;;;;;3.45;1.60;;;;;;;;;;5091300;28;20561;-68
2023/04/20 13:10:08;;;;;;;3.78;1.60;;;;;;;;;;5100820;28;20067;-71
2023/04/20 13:12:34;;;;;;;5.85;1.52;;;;;;;;;;5098963;28;20066;-69
2023/04/20 13:15:00;;;;;;;5.60;1.80;;;;;;;;;;5093148;28;20469;-70
2023/04/20 13:17:27;;;;;;;3.88;1.30;;;;;;;;;;5091015;28;20111;-69
2023/04/20 13:19:53;;;;;;;2.63;1.33;;;;;;;;;;5101913;28;20024;-70
2023/04/20 13:22:19;;;;;;;4.88;1.65;;;;;;;;;;5098664;28;20055;-69
2023/04/20 13:24:45;;;;;;;4.57;1.38;;;;;;;;;;5103914;28;20276;-69
2023/04/20 13:27:12;;;;;;;3.38;1.60;;;;;;;;;;5103812;28;20023;-68
2023/04/20 13:29:39;;;;;;;5.90;1.50;;;;;;;;;;5090208;28;20512;-68
2023/04/20 13:32:05;;;;;;;4.00;1.58;;;;;;;;;;5093428;28;20125;-69
2023/04/20 13:34:31;;;;;;;4.63;1.70;;;;;;;;;;5090936;28;20027;-68
2023/04/20 13:36:57;;;;;;;5.57;1.55;;;;;;;;;;5090794;28;20093;-68
2023/04/20 13:39:24;;;;;;;2.95;1.50;;;;;;;;;;5090831;28;20507;-68
2023/04/20 13:41:50;;;;;;;5.72;1.33;;;;;;;;;;5090938;28;20024;-68
2023/04/20 13:44:16;;;;;;;3.67;1.60;;;;;;;;;;5090840;28;20032;-68
2023/04/20 13:46:43;;;;;;;5.03;1.58;;;;;;;;;;5090906;28;20048;-68
2023/04/20 13:49:09;;;;;;;4.25;1.30;;;;;;;;;;5092598;28;20031;-68
2023/04/20 13:51:35;;;;;;;4.13;1.50;;;;;;;;;;5097977;28;20106;-68
2023/04/20 13:54:01;;;;;;;5.65;1.85;;;;;;;;;;5115127;28;20027;-67
2023/04/20 13:56:27;;;;;;;5.88;1.52;;;;;;;;;;5115197;28;20026;-68
2023/04/20 13:58:53;;;;;;;5.18;2.15;;;;;;;;;;5115054;28;20024;-68
2023/04/20 14:01:20;;;;;;;4.70;1.70;;;;;;;;;;5114874;28;20111;-68
2023/04/20 14:03:46;;;;;;;4.45;1.60;;;;;;;;;;5114886;28;20032;-68
2023/04/20 14:06:12;;;;;;;5.28;1.60;;;;;;;;;;5115254;28;20027;-67
2023/04/20 14:08:38;;;;;;;13.27;2.30;;;;;;;;;;5114946;28;20032;-68
2023/04/20 14:11:04;;;;;;;7.85;1.88;;;;;;;;;;5114808;28;20457;-67
2023/04/20 14:13:30;;;;;;;4.68;1.65;;;;;;;;;;5114989;28;20024;-68
2023/04/20 14:15:56;;;;;;;3.47;1.83;;;;;;;;;;5114864;28;20015;-66
2023/04/20 14:18:22;;;;;;;5.57;2.03;;;;;;;;;;5114731;28;20103;-68
2023/04/20 14:20:51;;;;;;;8.57;2.05;;;;;;;;;;5114496;28;20453;-67
2023/04/20 14:23:17;;;;;;;5.25;1.75;;;;;;;;;;5114728;28;20042;-67
2023/04/20 14:25:43;;;;;;;4.65;1.98;;;;;;;;;;5114690;28;20031;-67
2023/04/20 14:28:09;;;;;;;6.68;2.05;;;;;;;;;;5113226;28;20023;-68
2023/04/20 14:30:35;;;;;;;4.43;2.33;;;;;;;;;;5114514;28;20070;-68
2023/04/20 14:33:03;;;;;;;5.70;2.70;;;;;;;;;;5114511;28;20027;-68